sensor_id;sensor_type;location;lat;lon;timestamp;temperature;humidity
3136;DHT22;1578;47.658;9.922;2023-11-19T00:00:11;7.10;96.00
3136;DHT22;1578;47.658;9.922;2023-11-19T00:02:40;7.10;96.00
3136;DHT22;1578;47.658;9.922;2023-11-19T00:05:06;7.10;95.90
3136;DHT22;1578;47.658;9.922;2023-11-19T00:07:36;7.00;96.00
3136;DHT22;1578;47.658;9.922;2023-11-19T00:10:03;6.90;96.50
3136;DHT22;1578;47.658;9.922;2023-11-19T00:12:32;6.90;96.50
3136;DHT22;1578;47.658;9.922;2023-11-19T00:14:57;6.80;96.50
3136;DHT22;1578;47.658;9.922;2023-11-19T00:17:23;6.80;97.30
3136;DHT22;1578;47.658;9.922;2023-11-19T00:19:49;6.80;97.60
3136;DHT22;1578;47.658;9.922;2023-11-19T00:22:16;6.70;98.10
3136;DHT22;1578;47.658;9.922;2023-11-19T00:24:42;6.80;98.40
3136;DHT22;1578;47.658;9.922;2023-11-19T00:27:08;6.80;98.70
3136;DHT22;1578;47.658;9.922;2023-11-19T00:29:33;6.90;98.50
3136;DHT22;1578;47.658;9.922;2023-11-19T00:31:59;6.90;98.80
3136;DHT22;1578;47.658;9.922;2023-11-19T00:34:24;6.90;98.00
3136;DHT22;1578;47.658;9.922;2023-11-19T00:36:50;7.00;97.90
3136;DHT22;1578;47.658;9.922;2023-11-19T00:39:16;7.00;97.80
3136;DHT22;1578;47.658;9.922;2023-11-19T00:41:41;7.00;97.30
3136;DHT22;1578;47.658;9.922;2023-11-19T00:44:07;7.10;97.80
3136;DHT22;1578;47.658;9.922;2023-11-19T00:46:32;7.10;97.70
3136;DHT22;1578;47.658;9.922;2023-11-19T00:48:58;7.10;97.80
3136;DHT22;1578;47.658;9.922;2023-11-19T00:51:25;7.00;97.00
3136;DHT22;1578;47.658;9.922;2023-11-19T00:53:52;7.00;97.90
3136;DHT22;1578;47.658;9.922;2023-11-19T00:56:18;7.00;97.70
3136;DHT22;1578;47.658;9.922;2023-11-19T00:58:45;6.90;97.60
3136;DHT22;1578;47.658;9.922;2023-11-19T01:01:14;6.90;97.80
3136;DHT22;1578;47.658;9.922;2023-11-19T01:03:39;6.80;97.90
3136;DHT22;1578;47.658;9.922;2023-11-19T01:06:05;6.80;98.40
3136;DHT22;1578;47.658;9.922;2023-11-19T01:08:31;6.70;99.00
3136;DHT22;1578;47.658;9.922;2023-11-19T01:10:57;6.60;99.70
3136;DHT22;1578;47.658;9.922;2023-11-19T01:13:22;6.70;99.90
3136;DHT22;1578;47.658;9.922;2023-11-19T01:15:48;6.60;99.90
3136;DHT22;1578;47.658;9.922;2023-11-19T01:18:13;6.70;99.90
3136;DHT22;1578;47.658;9.922;2023-11-19T01:20:39;6.70;99.90
3136;DHT22;1578;47.658;9.922;2023-11-19T01:23:05;6.70;99.90
3136;DHT22;1578;47.658;9.922;2023-11-19T01:25:30;6.60;99.90
3136;DHT22;1578;47.658;9.922;2023-11-19T01:27:56;6.70;99.90
3136;DHT22;1578;47.658;9.922;2023-11-19T01:30:25;6.70;99.90
3136;DHT22;1578;47.658;9.922;2023-11-19T01:32:51;6.80;99.90
3136;DHT22;1578;47.658;9.922;2023-11-19T01:35:17;6.80;99.90
3136;DHT22;1578;47.658;9.922;2023-11-19T01:37:43;6.80;99.90
3136;DHT22;1578;47.658;9.922;2023-11-19T01:40:11;6.80;99.90
3136;DHT22;1578;47.658;9.922;2023-11-19T01:42:46;6.90;99.90
3136;DHT22;1578;47.658;9.922;2023-11-19T01:45:36;6.70;99.90
3136;DHT22;1578;47.658;9.922;2023-11-19T01:48:02;6.70;99.90
3136;DHT22;1578;47.658;9.922;2023-11-19T01:50:32;6.70;99.90
3136;DHT22;1578;47.658;9.922;2023-11-19T01:52:58;6.80;99.90
3136;DHT22;1578;47.658;9.922;2023-11-19T01:55:25;6.90;99.90
3136;DHT22;1578;47.658;9.922;2023-11-19T01:57:53;7.00;99.90
3136;DHT22;1578;47.658;9.922;2023-11-19T02:00:21;7.10;99.90
3136;DHT22;1578;47.658;9.922;2023-11-19T02:02:48;7.00;99.90
3136;DHT22;1578;47.658;9.922;2023-11-19T02:05:13;7.00;99.90
3136;DHT22;1578;47.658;9.922;2023-11-19T02:07:39;7.00;99.90
3136;DHT22;1578;47.658;9.922;2023-11-19T02:10:06;7.00;99.90
3136;DHT22;1578;47.658;9.922;2023-11-19T02:12:32;7.00;99.90
3136;DHT22;1578;47.658;9.922;2023-11-19T02:14:59;7.00;99.70
3136;DHT22;1578;47.658;9.922;2023-11-19T02:17:29;7.00;99.90
